sensor_id;sensor_type;location;lat;lon;timestamp;temperature;humidity
19732;DHT22;10017;54.350;18.532;2023-03-21T00:00:00;6.60;99.90
19732;DHT22;10017;54.350;18.532;2023-03-21T00:02:32;6.60;99.90
19732;DHT22;10017;54.350;18.532;2023-03-21T00:05:04;6.60;99.90
19732;DHT22;10017;54.350;18.532;2023-03-21T00:07:46;6.60;99.90
19732;DHT22;10017;54.350;18.532;2023-03-21T00:10:18;6.60;99.90
19732;DHT22;10017;54.350;18.532;2023-03-21T00:13:07;6.60;99.90
19732;DHT22;10017;54.350;18.532;2023-03-21T00:15:40;6.60;99.90
19732;DHT22;10017;54.350;18.532;2023-03-21T00:18:38;6.60;99.90
19732;DHT22;10017;54.350;18.532;2023-03-21T00:21:14;6.60;99.90
19732;DHT22;10017;54.350;18.532;2023-03-21T00:24:08;6.60;99.90
19732;DHT22;10017;54.350;18.532;2023-03-21T00:26:40;6.60;99.90
19732;DHT22;10017;54.350;18.532;2023-03-21T00:29:15;6.60;99.90
19732;DHT22;10017;54.350;18.532;2023-03-21T00:31:47;6.60;99.90
19732;DHT22;10017;54.350;18.532;2023-03-21T00:34:19;6.60;99.90
19732;DHT22;10017;54.350;18.532;2023-03-21T00:37:13;6.60;99.90
19732;DHT22;10017;54.350;18.532;2023-03-21T00:39:49;6.60;99.90
19732;DHT22;10017;54.350;18.532;2023-03-21T00:42:21;6.60;99.90
19732;DHT22;10017;54.350;18.532;2023-03-21T00:44:52;6.60;99.90
19732;DHT22;10017;54.350;18.532;2023-03-21T00:47:24;6.50;99.90
19732;DHT22;10017;54.350;18.532;2023-03-21T00:49:56;6.50;99.90
19732;DHT22;10017;54.350;18.532;2023-03-21T00:52:30;6.50;99.90
19732;DHT22;10017;54.350;18.532;2023-03-21T00:55:12;6.50;99.90
19732;DHT22;10017;54.350;18.532;2023-03-21T00:57:44;6.50;99.90
19732;DHT22;10017;54.350;18.532;2023-03-21T01:00:23;6.50;99.90
19732;DHT22;10017;54.350;18.532;2023-03-21T01:03:00;6.40;99.90
19732;DHT22;10017;54.350;18.532;2023-03-21T01:05:53;6.40;99.90
19732;DHT22;10017;54.350;18.532;2023-03-21T01:08:37;6.40;99.90
19732;DHT22;10017;54.350;18.532;2023-03-21T01:11:23;6.30;99.90
19732;DHT22;10017;54.350;18.532;2023-03-21T01:13:57;6.30;99.90
19732;DHT22;10017;54.350;18.532;2023-03-21T01:16:50;6.40;99.90
19732;DHT22;10017;54.350;18.532;2023-03-21T01:19:23;6.40;99.90
19732;DHT22;10017;54.350;18.532;2023-03-21T01:22:20;6.40;99.90
19732;DHT22;10017;54.350;18.532;2023-03-21T01:24:52;6.40;99.90
19732;DHT22;10017;54.350;18.532;2023-03-21T01:27:39;6.40;99.90
19732;DHT22;10017;54.350;18.532;2023-03-21T01:30:11;6.50;99.90
19732;DHT22;10017;54.350;18.532;2023-03-21T01:32:53;6.50;99.90
19732;DHT22;10017;54.350;18.532;2023-03-21T01:35:25;6.50;99.90
19732;DHT22;10017;54.350;18.532;2023-03-21T01:37:58;6.50;99.90
19732;DHT22;10017;54.350;18.532;2023-03-21T01:40:30;6.50;99.90
19732;DHT22;10017;54.350;18.532;2023-03-21T01:43:03;6.50;99.90
19732;DHT22;10017;54.350;18.532;2023-03-21T01:48:26;6.50;99.90
19732;DHT22;10017;54.350;18.532;2023-03-21T01:50:58;6.50;99.90
19732;DHT22;10017;54.350;18.532;2023-03-21T01:53:32;6.50;99.90
19732;DHT22;10017;54.350;18.532;2023-03-21T01:56:07;6.40;99.90
19732;DHT22;10017;54.350;18.532;2023-03-21T01:58:40;6.50;99.90
19732;DHT22;10017;54.350;18.532;2023-03-21T02:01:12;6.40;99.90
19732;DHT22;10017;54.350;18.532;2023-03-21T02:03:46;6.40;99.90
19732;DHT22;10017;54.350;18.532;2023-03-21T02:06:23;6.40;99.90
19732;DHT22;10017;54.350;18.532;2023-03-21T02:09:02;6.40;99.90
19732;DHT22;10017;54.350;18.532;2023-03-21T02:11:35;6.40;99.90
19732;DHT22;10017;54.350;18.532;2023-03-21T02:14:09;6.40;99.90
19732;DHT22;10017;54.350;18.532;2023-03-21T02:17:22;6.40;99.90
19732;DHT22;10017;54.350;18.532;2023-03-21T02:28:10;6.40;99.90
19732;DHT22;10017;54.350;18.532;2023-03-21T02:33:53;6.30;99.90
19732;DHT22;10017;54.350;18.532;2023-03-21T02:39:07;6.30;99.90
19732;DHT22;10017;54.350;18.532;2023-03-21T02:41:53;6.30;99.90
19732;DHT22;10017;54.350;18.532;2023-03-21T02:44:48;6.30;99.90
19732;DHT22;10017;54.350;18.532;2023-03-21T02:47:44;6.30;99.90
19732;DHT22;10017;54.350;18.532;2023-03-21T02:50:16;6.30;99.90
19732;DHT22;10017;54.350;18.532;2023-03-21T02:52:49;6.20;99.90
19732;DHT22;10017;54.350;18.532;2023-03-21T02:55:29;6.20;99.90
19732;DHT22;10017;54.350;18.532;2023-03-21T02:58:02;6.10;99.90
19732;DHT22;10017;54.350;18.532;2023-03-21T03:00:43;6.10;99.90
19732;DHT22;10017;54.350;18.532;2023-03-21T03:03:19;6.00;99.90
19732;DHT22;10017;54.350;18.532;2023-03-21T03:11:50;6.00;99.90
19732;DHT22;10017;54.350;18.532;2023-03-21T03:22:55;5.90;99.90
19732;DHT22;10017;54.350;18.532;2023-03-21T03:25:31;5.90;99.90
19732;DHT22;10017;54.350;18.532;2023-03-21T03:28:14;5.90;99.90
19732;DHT22;10017;54.350;18.532;2023-03-21T03:30:47;5.80;99.90
19732;DHT22;10017;54.350;18.532;2023-03-21T03:33:43;5.80;99.90
19732;DHT22;10017;54.350;18.532;2023-03-21T03:36:17;5.80;99.90
19732;DHT22;10017;54.350;18.532;2023-03-21T03:39:06;5.80;99.90
19732;DHT22;10017;54.350;18.532;2023-03-21T03:41:49;5.90;99.90
19732;DHT22;10017;54.350;18.532;2023-03-21T03:44:42;5.90;99.90
19732;DHT22;10017;54.350;18.532;2023-03-21T03:47:21;5.90;99.90
19732;DHT22;10017;54.350;18.532;2023-03-21T03:52:58;5.80;99.90
19732;DHT22;10017;54.350;18.532;2023-03-21T03:55:46;5.80;99.90
19732;DHT22;10017;54.350;18.532;2023-03-21T03:58:20;5.80;99.90
19732;DHT22;10017;54.350;18.532;2023-03-21T04:00:59;5.80;99.90
19732;DHT22;10017;54.350;18.532;2023-03-21T04:03:31;5.70;99.90
19732;DHT22;10017;54.350;18.532;2023-03-21T04:06:19;5.70;99.90
19732;DHT22;10017;54.350;18.532;2023-03-21T04:08:52;5.60;99.90
19732;DHT22;10017;54.350;18.532;2023-03-21T04:11:24;5.60;99.90
19732;DHT22;10017;54.350;18.532;2023-03-21T04:13:58;5.50;99.90
19732;DHT22;10017;54.350;18.532;2023-03-21T04:16:33;5.40;99.90
19732;DHT22;10017;54.350;18.532;2023-03-21T04:19:06;5.30;99.90
19732;DHT22;10017;54.350;18.532;2023-03-21T04:21:38;5.30;99.90
19732;DHT22;10017;54.350;18.532;2023-03-21T04:24:10;5.30;99.90
19732;DHT22;10017;54.350;18.532;2023-03-21T04:26:42;5.20;99.90
19732;DHT22;10017;54.350;18.532;2023-03-21T04:29:14;5.20;99.90
19732;DHT22;10017;54.350;18.532;2023-03-21T04:31:46;5.20;99.90
19732;DHT22;10017;54.350;18.532;2023-03-21T04:34:20;5.30;99.90
19732;DHT22;10017;54.350;18.532;2023-03-21T04:36:54;5.30;99.90
19732;DHT22;10017;54.350;18.532;2023-03-21T04:39:26;5.30;99.90
19732;DHT22;10017;54.350;18.532;2023-03-21T04:41:58;5.30;99.90
19732;DHT22;10017;54.350;18.532;2023-03-21T04:44:30;5.40;99.90
19732;DHT22;10017;54.350;18.532;2023-03-21T04:47:02;5.40;99.90
19732;DHT22;10017;54.350;18.532;2023-03-21T04:49:34;5.40;99.90
19732;DHT22;10017;54.350;18.532;2023-03-21T04:52:05;5.40;99.90
19732;DHT22;10017;54.350;18.532;2023-03-21T04:54:37;5.40;99.90
19732;DHT22;10017;54.350;18.532;2023-03-21T04:57:09;5.40;99.90
19732;DHT22;10017;54.350;18.532;2023-03-21T04:59:41;5.40;99.90
19732;DHT22;10017;54.350;18.532;2023-03-21T05:02:13;5.40;99.90
19732;DHT22;10017;54.350;18.532;2023-03-21T05:04:47;5.40;99.90
19732;DHT22;10017;54.350;18.532;2023-03-21T05:07:19;5.40;99.90
19732;DHT22;10017;54.350;18.532;2023-03-21T05:09:57;5.40;99.90
19732;DHT22;10017;54.350;18.532;2023-03-21T05:12:30;5.40;99.90
19732;DHT22;10017;54.350;18.532;2023-03-21T05:15:02;5.40;99.90
19732;DHT22;10017;54.350;18.532;2023-03-21T05:17:34;5.50;99.90
19732;DHT22;10017;54.350;18.532;2023-03-21T05:20:09;5.50;99.90
19732;DHT22;10017;54.350;18.532;2023-03-21T05:22:42;5.50;99.90
19732;DHT22;10017;54.350;18.532;2023-03-21T05:25:17;5.50;99.90
19732;DHT22;10017;54.350;18.532;2023-03-21T05:28:05;5.50;99.90
19732;DHT22;10017;54.350;18.532;2023-03-21T05:30:37;5.50;99.90
19732;DHT22;10017;54.350;18.532;2023-03-21T05:33:09;5.50;99.90
19732;DHT22;10017;54.350;18.532;2023-03-21T05:35:41;5.50;99.90
19732;DHT22;10017;54.350;18.532;2023-03-21T05:38:15;5.50;99.90
19732;DHT22;10017;54.350;18.532;2023-03-21T05:40:48;5.60;99.90
19732;DHT22;10017;54.350;18.532;2023-03-21T05:43:20;5.60;99.90
19732;DHT22;10017;54.350;18.532;2023-03-21T05:45:52;5.70;99.90
19732;DHT22;10017;54.350;18.532;2023-03-21T05:48:26;5.70;99.90
19732;DHT22;10017;54.350;18.532;2023-03-21T05:50:58;5.70;99.90
19732;DHT22;10017;54.350;18.532;2023-03-21T05:53:32;5.90;99.90
19732;DHT22;10017;54.350;18.532;2023-03-21T05:56:04;6.00;99.90
19732;DHT22;10017;54.350;18.532;2023-03-21T05:58:38;6.10;99.90
19732;DHT22;10017;54.350;18.532;2023-03-21T06:01:11;6.20;99.90
19732;DHT22;10017;54.350;18.532;2023-03-21T06:03:42;6.20;99.90
19732;DHT22;10017;54.350;18.532;2023-03-21T06:06:14;6.30;99.90
19732;DHT22;10017;54.350;18.532;2023-03-21T06:08:49;6.40;99.90
19732;DHT22;10017;54.350;18.532;2023-03-21T06:11:31;6.40;99.90
19732;DHT22;10017;54.350;18.532;2023-03-21T06:14:03;6.40;99.90
19732;DHT22;10017;54.350;18.532;2023-03-21T06:16:35;6.50;99.90
19732;DHT22;10017;54.350;18.532;2023-03-21T06:19:07;6.50;99.90
19732;DHT22;10017;54.350;18.532;2023-03-21T06:21:39;6.40;99.90
19732;DHT22;10017;54.350;18.532;2023-03-21T06:24:11;6.40;99.90
19732;DHT22;10017;54.350;18.532;2023-03-21T06:26:43;6.50;99.90
19732;DHT22;10017;54.350;18.532;2023-03-21T06:29:15;6.40;99.90
19732;DHT22;10017;54.350;18.532;2023-03-21T06:31:47;6.50;99.90
19732;DHT22;10017;54.350;18.532;2023-03-21T06:34:19;6.60;99.90
19732;DHT22;10017;54.350;18.532;2023-03-21T06:36:51;6.60;99.90
19732;DHT22;10017;54.350;18.532;2023-03-21T06:39:25;6.70;99.90
19732;DHT22;10017;54.350;18.532;2023-03-21T06:41:56;6.90;99.90
19732;DHT22;10017;54.350;18.532;2023-03-21T06:44:28;7.10;99.90
19732;DHT22;10017;54.350;18.532;2023-03-21T06:47:03;7.30;99.90
19732;DHT22;10017;54.350;18.532;2023-03-21T06:49:35;7.40;99.90
19732;DHT22;10017;54.350;18.532;2023-03-21T06:52:07;7.40;99.90
19732;DHT22;10017;54.350;18.532;2023-03-21T06:54:38;7.40;99.90
19732;DHT22;10017;54.350;18.532;2023-03-21T06:57:11;7.20;99.90
19732;DHT22;10017;54.350;18.532;2023-03-21T06:59:44;7.10;99.90
19732;DHT22;10017;54.350;18.532;2023-03-21T07:02:15;6.80;99.90
19732;DHT22;10017;54.350;18.532;2023-03-21T07:04:47;7.00;99.90
19732;DHT22;10017;54.350;18.532;2023-03-21T07:07:22;7.80;99.90
19732;DHT22;10017;54.350;18.532;2023-03-21T07:09:54;7.90;99.90
19732;DHT22;10017;54.350;18.532;2023-03-21T07:12:26;8.00;99.90
19732;DHT22;10017;54.350;18.532;2023-03-21T07:14:59;8.10;99.90
19732;DHT22;10017;54.350;18.532;2023-03-21T07:17:31;8.10;99.90
19732;DHT22;10017;54.350;18.532;2023-03-21T07:20:03;8.20;99.90
19732;DHT22;10017;54.350;18.532;2023-03-21T07:22:43;8.40;99.90
19732;DHT22;10017;54.350;18.532;2023-03-21T07:25:15;8.40;99.90
19732;DHT22;10017;54.350;18.532;2023-03-21T07:27:48;8.30;99.90
19732;DHT22;10017;54.350;18.532;2023-03-21T07:30:23;8.50;99.90
19732;DHT22;10017;54.350;18.532;2023-03-21T07:32:55;8.50;99.90
19732;DHT22;10017;54.350;18.532;2023-03-21T07:35:27;8.70;94.60
19732;DHT22;10017;54.350;18.532;2023-03-21T07:37:59;9.00;85.10
19732;DHT22;10017;54.350;18.532;2023-03-21T07:40:31;9.00;53.40
19732;DHT22;10017;54.350;18.532;2023-03-21T07:43:03;9.10;50.30
19732;DHT22;10017;54.350;18.532;2023-03-21T07:45:35;8.70;55.90
19732;DHT22;10017;54.350;18.532;2023-03-21T07:48:08;8.40;97.00
19732;DHT22;10017;54.350;18.532;2023-03-21T07:50:40;8.20;99.90
19732;DHT22;10017;54.350;18.532;2023-03-21T07:53:12;8.00;99.90
19732;DHT22;10017;54.350;18.532;2023-03-21T07:55:44;8.00;99.90
19732;DHT22;10017;54.350;18.532;2023-03-21T07:58:16;8.20;99.90
19732;DHT22;10017;54.350;18.532;2023-03-21T08:00:47;8.40;99.90
19732;DHT22;10017;54.350;18.532;2023-03-21T08:03:21;8.60;90.40
19732;DHT22;10017;54.350;18.532;2023-03-21T08:05:54;8.70;83.30
19732;DHT22;10017;54.350;18.532;2023-03-21T08:08:26;8.60;71.10
19732;DHT22;10017;54.350;18.532;2023-03-21T08:10:58;8.30;86.70
19732;DHT22;10017;54.350;18.532;2023-03-21T08:13:32;8.10;99.90
19732;DHT22;10017;54.350;18.532;2023-03-21T08:16:09;7.90;99.90
19732;DHT22;10017;54.350;18.532;2023-03-21T08:18:41;7.90;99.90
19732;DHT22;10017;54.350;18.532;2023-03-21T08:21:13;8.00;99.90
19732;DHT22;10017;54.350;18.532;2023-03-21T08:23:45;8.00;99.90
19732;DHT22;10017;54.350;18.532;2023-03-21T08:26:17;8.10;99.90
19732;DHT22;10017;54.350;18.532;2023-03-21T08:28:49;8.10;99.90
19732;DHT22;10017;54.350;18.532;2023-03-21T08:31:24;8.10;99.90
19732;DHT22;10017;54.350;18.532;2023-03-21T08:33:56;7.90;99.90
19732;DHT22;10017;54.350;18.532;2023-03-21T08:36:28;8.00;99.90
19732;DHT22;10017;54.350;18.532;2023-03-21T08:39:01;8.10;99.90
19732;DHT22;10017;54.350;18.532;2023-03-21T08:41:36;8.10;99.90
19732;DHT22;10017;54.350;18.532;2023-03-21T08:44:08;8.10;99.90
19732;DHT22;10017;54.350;18.532;2023-03-21T08:46:41;8.00;99.90
19732;DHT22;10017;54.350;18.532;2023-03-21T08:49:13;7.90;99.90
19732;DHT22;10017;54.350;18.532;2023-03-21T08:51:45;7.70;99.90
19732;DHT22;10017;54.350;18.532;2023-03-21T08:54:17;7.50;99.90
19732;DHT22;10017;54.350;18.532;2023-03-21T08:56:50;7.30;99.90
19732;DHT22;10017;54.350;18.532;2023-03-21T08:59:22;7.40;99.90
19732;DHT22;10017;54.350;18.532;2023-03-21T09:01:54;7.50;99.90
19732;DHT22;10017;54.350;18.532;2023-03-21T09:04:31;7.60;99.90
19732;DHT22;10017;54.350;18.532;2023-03-21T09:07:02;7.80;99.90
19732;DHT22;10017;54.350;18.532;2023-03-21T09:09:35;8.00;99.90
19732;DHT22;10017;54.350;18.532;2023-03-21T09:12:08;8.20;99.90
19732;DHT22;10017;54.350;18.532;2023-03-21T09:14:39;8.40;99.90
19732;DHT22;10017;54.350;18.532;2023-03-21T09:17:14;8.50;87.70
19732;DHT22;10017;54.350;18.532;2023-03-21T09:19:46;8.70;66.60
19732;DHT22;10017;54.350;18.532;2023-03-21T09:22:19;8.80;45.70
19732;DHT22;10017;54.350;18.532;2023-03-21T09:24:52;8.50;41.50
19732;DHT22;10017;54.350;18.532;2023-03-21T09:27:24;8.40;52.10
19732;DHT22;10017;54.350;18.532;2023-03-21T09:30:01;8.30;51.90
19732;DHT22;10017;54.350;18.532;2023-03-21T09:32:33;8.30;56.10
19732;DHT22;10017;54.350;18.532;2023-03-21T09:35:05;8.30;44.70
19732;DHT22;10017;54.350;18.532;2023-03-21T09:37:38;8.20;49.10
19732;DHT22;10017;54.350;18.532;2023-03-21T09:45:36;8.40;35.10
19732;DHT22;10017;54.350;18.532;2023-03-21T09:48:15;8.50;33.20
19732;DHT22;10017;54.350;18.532;2023-03-21T09:50:50;8.50;29.70
19732;DHT22;10017;54.350;18.532;2023-03-21T09:53:24;8.40;30.30
19732;DHT22;10017;54.350;18.532;2023-03-21T09:55:58;8.40;33.50
19732;DHT22;10017;54.350;18.532;2023-03-21T09:58:33;8.40;35.40
19732;DHT22;10017;54.350;18.532;2023-03-21T10:03:41;8.40;28.50
19732;DHT22;10017;54.350;18.532;2023-03-21T10:06:14;8.40;25.20
19732;DHT22;10017;54.350;18.532;2023-03-21T10:08:47;8.50;22.50
19732;DHT22;10017;54.350;18.532;2023-03-21T10:11:31;8.50;22.70
19732;DHT22;10017;54.350;18.532;2023-03-21T10:14:11;8.60;14.90
19732;DHT22;10017;54.350;18.532;2023-03-21T10:16:45;8.70;16.00
19732;DHT22;10017;54.350;18.532;2023-03-21T10:19:19;8.70;17.70
19732;DHT22;10017;54.350;18.532;2023-03-21T10:21:51;8.80;18.30
19732;DHT22;10017;54.350;18.532;2023-03-21T10:24:33;8.80;16.00
19732;DHT22;10017;54.350;18.532;2023-03-21T10:27:05;8.80;20.70
19732;DHT22;10017;54.350;18.532;2023-03-21T10:29:41;8.80;11.40
19732;DHT22;10017;54.350;18.532;2023-03-21T10:32:16;8.90;17.20
19732;DHT22;10017;54.350;18.532;2023-03-21T10:34:57;9.10;14.50
19732;DHT22;10017;54.350;18.532;2023-03-21T10:37:29;9.20;10.00
19732;DHT22;10017;54.350;18.532;2023-03-21T10:40:02;9.40;9.40
19732;DHT22;10017;54.350;18.532;2023-03-21T10:42:38;9.40;2.50
19732;DHT22;10017;54.350;18.532;2023-03-21T10:45:14;9.40;1.00
19732;DHT22;10017;54.350;18.532;2023-03-21T10:47:50;9.20;1.70
19732;DHT22;10017;54.350;18.532;2023-03-21T10:50:26;9.10;5.70
19732;DHT22;10017;54.350;18.532;2023-03-21T10:53:00;9.10;2.50
19732;DHT22;10017;54.350;18.532;2023-03-21T10:55:32;9.40;5.00
19732;DHT22;10017;54.350;18.532;2023-03-21T10:58:05;9.50;2.70
19732;DHT22;10017;54.350;18.532;2023-03-21T11:00:39;9.60;1.00
19732;DHT22;10017;54.350;18.532;2023-03-21T11:03:22;9.70;1.00
19732;DHT22;10017;54.350;18.532;2023-03-21T11:05:55;9.80;1.00
19732;DHT22;10017;54.350;18.532;2023-03-21T11:08:27;10.00;1.00
19732;DHT22;10017;54.350;18.532;2023-03-21T11:11:01;10.10;1.00
19732;DHT22;10017;54.350;18.532;2023-03-21T11:13:38;10.40;1.00
19732;DHT22;10017;54.350;18.532;2023-03-21T11:16:24;10.80;1.00
19732;DHT22;10017;54.350;18.532;2023-03-21T11:19:01;11.00;1.00
19732;DHT22;10017;54.350;18.532;2023-03-21T11:21:34;11.20;1.00
19732;DHT22;10017;54.350;18.532;2023-03-21T11:24:09;10.90;1.00
19732;DHT22;10017;54.350;18.532;2023-03-21T11:26:43;10.40;1.00
19732;DHT22;10017;54.350;18.532;2023-03-21T11:31:51;10.20;1.00
19732;DHT22;10017;54.350;18.532;2023-03-21T11:34:28;10.20;1.00
19732;DHT22;10017;54.350;18.532;2023-03-21T11:37:01;10.30;1.00
19732;DHT22;10017;54.350;18.532;2023-03-21T11:39:35;10.60;1.00
19732;DHT22;10017;54.350;18.532;2023-03-21T11:42:24;10.60;1.00
19732;DHT22;10017;54.350;18.532;2023-03-21T11:44:59;10.20;1.00
19732;DHT22;10017;54.350;18.532;2023-03-21T11:47:32;9.90;1.00
19732;DHT22;10017;54.350;18.532;2023-03-21T11:50:39;9.60;1.00
19732;DHT22;10017;54.350;18.532;2023-03-21T12:03:48;9.40;1.00
19732;DHT22;10017;54.350;18.532;2023-03-21T12:11:40;9.30;1.00
19732;DHT22;10017;54.350;18.532;2023-03-21T12:14:18;9.40;1.00
19732;DHT22;10017;54.350;18.532;2023-03-21T12:24:56;9.90;1.00
19732;DHT22;10017;54.350;18.532;2023-03-21T12:27:38;9.90;1.00
19732;DHT22;10017;54.350;18.532;2023-03-21T12:33:07;9.80;1.00
19732;DHT22;10017;54.350;18.532;2023-03-21T12:46:21;9.80;1.00
19732;DHT22;10017;54.350;18.532;2023-03-21T12:48:59;9.90;1.00
19732;DHT22;10017;54.350;18.532;2023-03-21T12:51:35;9.80;1.00
19732;DHT22;10017;54.350;18.532;2023-03-21T12:56:57;10.20;1.00
19732;DHT22;10017;54.350;18.532;2023-03-21T13:07:34;10.90;1.00
19732;DHT22;10017;54.350;18.532;2023-03-21T13:10:13;11.00;1.00
19732;DHT22;10017;54.350;18.532;2023-03-21T13:20:51;10.60;1.00
19732;DHT22;10017;54.350;18.532;2023-03-21T13:23:24;10.30;1.00
19732;DHT22;10017;54.350;18.532;2023-03-21T13:26:07;10.20;1.00
19732;DHT22;10017;54.350;18.532;2023-03-21T13:28:39;10.10;1.00
19732;DHT22;10017;54.350;18.532;2023-03-21T13:31:23;10.00;1.00
19732;DHT22;10017;54.350;18.532;2023-03-21T13:33:58;10.00;1.00
19732;DHT22;10017;54.350;18.532;2023-03-21T13:36:30;9.90;1.00
19732;DHT22;10017;54.350;18.532;2023-03-21T13:39:06;10.10;1.00
19732;DHT22;10017;54.350;18.532;2023-03-21T13:41:47;10.30;1.00
19732;DHT22;10017;54.350;18.532;2023-03-21T13:44:23;10.70;1.00
19732;DHT22;10017;54.350;18.532;2023-03-21T13:47:00;11.20;1.00
19732;DHT22;10017;54.350;18.532;2023-03-21T13:49:33;11.70;1.00
19732;DHT22;10017;54.350;18.532;2023-03-21T13:54:53;12.60;1.00
19732;DHT22;10017;54.350;18.532;2023-03-21T14:00:18;12.50;1.00
19732;DHT22;10017;54.350;18.532;2023-03-21T14:02:56;12.30;1.00
19732;DHT22;10017;54.350;18.532;2023-03-21T14:05:31;12.10;1.00
19732;DHT22;10017;54.350;18.532;2023-03-21T14:08:06;12.00;1.00
19732;DHT22;10017;54.350;18.532;2023-03-21T14:10:56;11.80;1.00
19732;DHT22;10017;54.350;18.532;2023-03-21T14:13:30;11.80;1.00
19732;DHT22;10017;54.350;18.532;2023-03-21T14:16:12;11.60;1.00
19732;DHT22;10017;54.350;18.532;2023-03-21T14:21:26;11.20;1.00
19732;DHT22;10017;54.350;18.532;2023-03-21T14:24:06;11.10;1.00
19732;DHT22;10017;54.350;18.532;2023-03-21T14:26:40;11.20;1.00
19732;DHT22;10017;54.350;18.532;2023-03-21T14:29:34;11.30;1.00
19732;DHT22;10017;54.350;18.532;2023-03-21T14:32:05;11.20;1.00
19732;DHT22;10017;54.350;18.532;2023-03-21T14:34:38;11.00;1.00
19732;DHT22;10017;54.350;18.532;2023-03-21T14:37:59;10.80;1.00
19732;DHT22;10017;54.350;18.532;2023-03-21T14:43:03;10.50;1.00
19732;DHT22;10017;54.350;18.532;2023-03-21T14:45:40;10.40;1.00
19732;DHT22;10017;54.350;18.532;2023-03-21T14:48:13;10.50;1.00
19732;DHT22;10017;54.350;18.532;2023-03-21T14:50:51;10.90;1.00
19732;DHT22;10017;54.350;18.532;2023-03-21T14:53:25;11.10;1.00
19732;DHT22;10017;54.350;18.532;2023-03-21T14:55:58;11.10;1.00
19732;DHT22;10017;54.350;18.532;2023-03-21T14:58:31;11.00;1.00
19732;DHT22;10017;54.350;18.532;2023-03-21T15:01:10;10.90;1.00
19732;DHT22;10017;54.350;18.532;2023-03-21T15:03:44;10.70;1.00
19732;DHT22;10017;54.350;18.532;2023-03-21T15:06:17;10.50;1.00
19732;DHT22;10017;54.350;18.532;2023-03-21T15:08:53;10.50;1.00
19732;DHT22;10017;54.350;18.532;2023-03-21T15:11:36;10.40;1.00
19732;DHT22;10017;54.350;18.532;2023-03-21T15:14:10;10.20;1.00
19732;DHT22;10017;54.350;18.532;2023-03-21T15:16:42;10.10;1.00
19732;DHT22;10017;54.350;18.532;2023-03-21T15:19:18;10.00;1.00
19732;DHT22;10017;54.350;18.532;2023-03-21T15:21:55;9.90;1.00
19732;DHT22;10017;54.350;18.532;2023-03-21T15:24:29;9.90;1.00
19732;DHT22;10017;54.350;18.532;2023-03-21T15:27:06;9.90;1.00
19732;DHT22;10017;54.350;18.532;2023-03-21T15:29:38;10.10;1.00
19732;DHT22;10017;54.350;18.532;2023-03-21T15:32:15;10.40;1.00
19732;DHT22;10017;54.350;18.532;2023-03-21T15:34:52;10.90;1.00
19732;DHT22;10017;54.350;18.532;2023-03-21T15:37:25;11.20;1.00
19732;DHT22;10017;54.350;18.532;2023-03-21T15:40:05;11.40;1.00
19732;DHT22;10017;54.350;18.532;2023-03-21T15:42:40;11.20;1.00
19732;DHT22;10017;54.350;18.532;2023-03-21T15:45:26;11.00;1.00
19732;DHT22;10017;54.350;18.532;2023-03-21T15:50:34;10.40;1.00
19732;DHT22;10017;54.350;18.532;2023-03-21T15:53:16;10.00;1.00
19732;DHT22;10017;54.350;18.532;2023-03-21T15:55:49;9.80;1.00
19732;DHT22;10017;54.350;18.532;2023-03-21T15:58:27;9.60;1.00
19732;DHT22;10017;54.350;18.532;2023-03-21T16:01:05;9.50;1.00
19732;DHT22;10017;54.350;18.532;2023-03-21T16:03:40;9.30;10.20
19732;DHT22;10017;54.350;18.532;2023-03-21T16:13:49;8.60;56.10
19732;DHT22;10017;54.350;18.532;2023-03-21T16:16:22;8.50;76.80
19732;DHT22;10017;54.350;18.532;2023-03-21T16:18:55;8.40;90.60
19732;DHT22;10017;54.350;18.532;2023-03-21T16:21:28;8.20;98.90
19732;DHT22;10017;54.350;18.532;2023-03-21T16:24:01;8.10;99.90
19732;DHT22;10017;54.350;18.532;2023-03-21T16:26:35;8.00;99.90
19732;DHT22;10017;54.350;18.532;2023-03-21T16:29:07;7.90;99.90
19732;DHT22;10017;54.350;18.532;2023-03-21T16:31:39;7.90;99.90
19732;DHT22;10017;54.350;18.532;2023-03-21T16:34:11;7.70;99.90
19732;DHT22;10017;54.350;18.532;2023-03-21T16:36:43;7.70;99.90
19732;DHT22;10017;54.350;18.532;2023-03-21T16:41:49;7.50;99.90
19732;DHT22;10017;54.350;18.532;2023-03-21T16:44:26;7.40;99.90
19732;DHT22;10017;54.350;18.532;2023-03-21T16:46:58;7.40;99.90
19732;DHT22;10017;54.350;18.532;2023-03-21T16:49:32;7.30;99.90
19732;DHT22;10017;54.350;18.532;2023-03-21T16:52:04;7.30;99.90
19732;DHT22;10017;54.350;18.532;2023-03-21T16:54:37;7.20;99.90
19732;DHT22;10017;54.350;18.532;2023-03-21T16:57:22;7.20;99.90
19732;DHT22;10017;54.350;18.532;2023-03-21T16:59:58;7.10;99.90
19732;DHT22;10017;54.350;18.532;2023-03-21T17:02:30;7.10;99.90
19732;DHT22;10017;54.350;18.532;2023-03-21T17:05:01;7.00;99.90
19732;DHT22;10017;54.350;18.532;2023-03-21T17:07:35;7.00;99.90
19732;DHT22;10017;54.350;18.532;2023-03-21T17:10:21;7.00;99.90
19732;DHT22;10017;54.350;18.532;2023-03-21T17:12:53;6.90;99.90
19732;DHT22;10017;54.350;18.532;2023-03-21T17:15:25;6.80;99.90
19732;DHT22;10017;54.350;18.532;2023-03-21T17:17:57;6.80;99.90
19732;DHT22;10017;54.350;18.532;2023-03-21T17:20:30;6.80;99.90
19732;DHT22;10017;54.350;18.532;2023-03-21T17:23:02;6.70;99.90
19732;DHT22;10017;54.350;18.532;2023-03-21T17:25:34;6.70;99.90
19732;DHT22;10017;54.350;18.532;2023-03-21T17:28:06;6.70;99.90
19732;DHT22;10017;54.350;18.532;2023-03-21T17:30:38;6.70;99.90
19732;DHT22;10017;54.350;18.532;2023-03-21T17:33:11;6.70;99.90
19732;DHT22;10017;54.350;18.532;2023-03-21T17:35:42;6.60;99.90
19732;DHT22;10017;54.350;18.532;2023-03-21T17:38:15;6.60;99.90
19732;DHT22;10017;54.350;18.532;2023-03-21T17:40:47;6.60;99.90
19732;DHT22;10017;54.350;18.532;2023-03-21T17:43:21;6.50;99.90
19732;DHT22;10017;54.350;18.532;2023-03-21T17:45:53;6.40;99.90
19732;DHT22;10017;54.350;18.532;2023-03-21T17:48:25;6.30;99.90
19732;DHT22;10017;54.350;18.532;2023-03-21T17:50:57;6.30;99.90
19732;DHT22;10017;54.350;18.532;2023-03-21T17:53:31;6.20;99.90
19732;DHT22;10017;54.350;18.532;2023-03-21T17:56:03;6.10;99.90
19732;DHT22;10017;54.350;18.532;2023-03-21T17:58:35;6.10;99.90
19732;DHT22;10017;54.350;18.532;2023-03-21T18:01:07;6.10;99.90
19732;DHT22;10017;54.350;18.532;2023-03-21T18:03:39;6.10;99.90
19732;DHT22;10017;54.350;18.532;2023-03-21T18:06:14;6.00;99.90
19732;DHT22;10017;54.350;18.532;2023-03-21T18:08:47;6.00;99.90
19732;DHT22;10017;54.350;18.532;2023-03-21T18:11:20;6.00;99.90
19732;DHT22;10017;54.350;18.532;2023-03-21T18:13:52;6.10;99.90
19732;DHT22;10017;54.350;18.532;2023-03-21T18:16:40;6.10;99.90
19732;DHT22;10017;54.350;18.532;2023-03-21T18:19:12;6.10;99.90
19732;DHT22;10017;54.350;18.532;2023-03-21T18:21:45;6.10;99.90
19732;DHT22;10017;54.350;18.532;2023-03-21T18:24:17;6.10;99.90
19732;DHT22;10017;54.350;18.532;2023-03-21T18:26:53;6.10;99.90